Data for 07/09/2008

Time Sea-Level Adjusted Pressure Absolute Pressure Temperature Relative Humidity Dew Point   
(mb) (inHg) (mb) (inHg) (C) (F) (%) (C) (F)
00:05 1022 30.18 851 25.13 16 60.8 46 4.4 39.9
00:10 1022 30.18 851 25.13 15.6 60 46 4.2 39.5
00:15 1022 30.18 851 25.13 15.8 60.4 43 3.4 38.1
00:20 1022 30.18 851 25.13 15.9 60.6 45 4.2 39.5
00:25 1022 30.18 851 25.13 15.7 60.3 45 3.8 38.9
00:30 1022 30.18 851 25.13 15.4 59.6 46 3.9 39
00:35 1022 30.18 851 25.13 15.2 59.4 47 4 39.1
00:40 1022 30.18 851 25.13 15.1 59.2 46 3.8 38.9
00:45 1022 30.18 851 25.13 15.1 59.1 45 3.4 38.1
00:50 1022 30.18 851 25.13 15.1 59.2 45 3.5 38.3
00:55 1022 30.18 851 25.13 15.2 59.3 45 3.5 38.3
01:00 1022 30.18 851 25.13 15.1 59.2 46 3.7 38.6
01:05 1022 30.18 851 25.13 15.3 59.6 45 3.4 38.2
01:10 1022 30.18 851 25.13 15.3 59.5 45 3.6 38.4
01:15 1022 30.18 851 25.13 15.1 59.1 46 3.6 38.6
01:20 1022 30.18 851 25.13 14.7 58.5 48 3.8 38.9
01:25 1022 30.18 851 25.13 14.5 58.1 48 3.7 38.7
01:30 1022 30.18 851 25.13 14.3 57.7 48 3.6 38.5
01:35 1022 30.18 851 25.13 14.2 57.6 49 3.8 38.9
01:40 1021 30.15 851 25.13 14 57.1 50 3.8 38.8
01:45 1021 30.15 851 25.13 13.8 56.9 50 3.6 38.5
01:50 1021 30.15 851 25.13 14.1 57.4 48 3.4 38.1
01:55 1021 30.15 851 25.13 14.4 57.9 47 3.3 37.9
02:00 1021 30.15 851 25.13 14.6 58.4 47 3.5 38.3
02:05 1021 30.15 851 25.13 14.5 58.1 47 3.4 38.2
02:10 1021 30.15 851 25.13 14.6 58.3 47 3.4 38.2
02:15 1021 30.15 851 25.13 14.6 58.3 46 3.2 37.8
02:20 1021 30.15 851 25.13 14.7 58.5 46 3.2 37.7
02:25 1021 30.15 851 25.13 14.6 58.3 46 3.3 37.9
02:30 1021 30.15 851 25.13 14.6 58.3 45 3 37.3
02:35 1021 30.15 851 25.13 14.9 58.8 44 2.9 37.3
02:40 1022 30.18 851 25.13 15 59 45 3.2 37.7
02:45 1022 30.18 851 25.13 14.9 58.9 45 3.2 37.7
02:50 1022 30.18 851 25.13 14.9 58.7 46 3.3 38
02:55 1022 30.18 851 25.13 14.7 58.5 45 3.1 37.5
03:00 1022 30.18 851 25.13 14.6 58.3 46 3.3 38
03:05 1022 30.18 851 25.13 14.4 57.9 47 3.2 37.7
03:10 1022 30.18 851 25.13 14.5 58.1 45 2.9 37.3
03:15 1021 30.15 851 25.13 14.6 58.2 46 3 37.4
03:20 1021 30.15 851 25.13 14.5 58 46 3.2 37.8
03:25 1022 30.18 851 25.13 14.4 57.9 47 3.3 38
03:30 1022 30.18 851 25.13 14 57.3 48 3.3 37.9
03:35 1022 30.18 851 25.13 13.9 57 48 3.3 37.9
03:40 1022 30.18 851 25.13 13.9 57 48 3.2 37.8
03:45 1022 30.18 851 25.13 13.9 57 48 3.2 37.7
03:50 1022 30.18 851 25.13 14 57.2 48 3.2 37.7
03:55 1022 30.18 851 25.13 13.9 56.9 48 3.2 37.8
04:00 1022 30.18 851 25.13 13.5 56.3 51 3.6 38.4
04:05 1022 30.18 851 25.13 13.2 55.7 51 3.3 37.9
04:10 1022 30.18 851 25.13 13.4 56.1 50 3.2 37.8
04:15 1022 30.18 851 25.13 13.2 55.8 51 3.4 38.1
04:20 1021 30.15 851 25.13 13 55.5 52 3.4 38.2
04:25 1021 30.15 851 25.13 12.8 55 52 3.4 38.1
04:30 1021 30.15 851 25.13 12.9 55.2 51 3.1 37.6
04:35 1021 30.15 851 25.13 13.1 55.5 51 3.2 37.8
04:40 1021 30.15 851 25.13 13.2 55.8 50 3.1 37.5
04:45 1021 30.15 851 25.13 13.6 56.5 48 3 37.5
04:50 1021 30.15 851 25.13 13.6 56.5 49 3.3 38
04:55 1021 30.15 851 25.13 13.4 56.1 50 3.3 37.9
05:00 1021 30.15 851 25.13 13.1 55.6 52 3.6 38.5
05:05 1021 30.15 851 25.13 12.8 55 52 3.4 38.1
05:10 1021 30.15 851 25.13 12.8 55 53 3.4 38.2
05:15 1021 30.15 851 25.13 12.7 54.9 52 3.2 37.7
05:20 1021 30.15 851 25.13 12.6 54.7 54 3.5 38.3
05:25 1022 30.18 851 25.13 12.4 54.2 54 3.5 38.2
05:30 1022 30.18 851 25.13 12.6 54.6 52 3 37.5
05:35 1022 30.18 851 25.13 12.9 55.3 51 3.1 37.5
05:40 1022 30.18 851 25.13 13.1 55.5 50 3 37.4
05:45 1022 30.18 851 25.13 13.3 55.9 50 3.2 37.7
05:50 1022 30.18 851 25.13 13.2 55.7 50 3 37.4
05:55 1022 30.18 851 25.13 13.1 55.6 51 3.3 37.9
06:00 1022 30.18 851 25.13 13 55.3 51 3.2 37.8
06:05 1022 30.18 851 25.13 13 55.4 52 3.5 38.2
06:10 1022 30.18 851 25.13 13.1 55.7 51 3.2 37.7
06:15 1022 30.18 851 25.13 13.3 55.9 51 3.4 38.1
06:20 1022 30.18 851 25.13 13.2 55.8 51 3.4 38.2
06:25 1022 30.18 851 25.13 13 55.3 52 3.5 38.2
06:30 1022 30.18 851 25.13 12.6 54.8 53 3.3 37.9
06:35 1022 30.18 851 25.13 12.7 54.8 53 3.3 38
06:40 1022 30.18 851 25.13 12.8 55.1 54 3.8 38.9
06:45 1022 30.18 851 25.13 12.8 55 55 4 39.3
06:50 1022 30.18 851 25.13 12.8 55.1 55 4 39.2
06:55 1022 30.18 851 25.13 12.9 55.2 56 4.3 39.8
07:00 1022 30.18 851 25.13 13 55.4 56 4.4 40
07:05 1022 30.18 851 25.13 12.8 55.1 56 4.3 39.7
07:10 1022 30.18 851 25.13 12.9 55.2 57 4.6 40.2
07:15 1022 30.18 851 25.13 13 55.4 57 4.6 40.4
07:20 1022 30.18 851 25.13 13.1 55.5 57 4.7 40.5
07:25 1022 30.18 851 25.13 13.4 56.1 55 4.7 40.4
07:30 1022 30.18 851 25.13 13.7 56.6 55 4.7 40.5
07:35 1022 30.18 851 25.13 14 57.3 55 5.2 41.4
07:40 1022 30.18 851 25.13 14.4 57.8 54 5.2 41.4
07:45 1022 30.18 851 25.13 14.9 58.7 52 5.3 41.6
07:50 1022 30.18 851 25.13 15.4 59.6 51 5.4 41.7
07:55 1022 30.18 851 25.13 15.6 60 49 5 41
08:00 1022 30.18 851 25.13 16.2 61.2 47 4.9 40.8
08:05 1022 30.18 851 25.13 17 62.7 44 4.7 40.4
08:10 1022 30.18 851 25.13 17.8 64.1 43 5.3 41.6
08:15 1022 30.18 851 25.13 18.1 64.7 43 5.5 42
08:20 1022 30.18 851 25.13 18.2 64.7 44 5.9 42.7
08:25 1022 30.18 851 25.13 18.5 65.2 42 5.6 42
08:30 1022 30.18 851 25.13 18.9 66 42 5.8 42.5
08:35 1022 30.18 851 25.13 18.4 65.1 41 5.1 41.2
08:40 1022 30.18 851 25.13 18.8 65.8 40 5 41
08:45 1022 30.18 851 25.13 19.6 67.3 37 4.6 40.2
08:50 1022 30.18 851 25.13 20 68.1 34 3.8 38.9
08:55 1022 30.18 851 25.13 19.8 67.7 40 5.8 42.5
09:00 1022 30.18 851 25.13 20 67.9 36 4.7 40.5
09:05 1022 30.18 851 25.13 20.5 68.9 34 4.3 39.7
09:10 1022 30.18 851 25.13 20.2 68.4 36 4.8 40.7
09:15 1022 30.18 851 25.13 20.3 68.5 36 4.8 40.6
09:20 1022 30.18 851 25.13 20.7 69.3 33 4.2 39.5
09:25 1022 30.18 851 25.13 21.3 70.3 34 5.1 41.3
09:30 1022 30.18 851 25.13 21.2 70.1 33 4.5 40.1
09:35 1022 30.18 851 25.13 21 69.7 33 4.4 39.9
09:40 1022 30.18 851 25.13 20.8 69.4 34 4.3 39.8
09:45 1022 30.18 851 25.13 20.7 69.3 33 4.3 39.7
09:50 1022 30.18 851 25.13 21.4 70.6 32 4.1 39.3
09:55 1022 30.18 851 25.13 21.4 70.4 34 5 40.9
10:00 1022 30.18 851 25.13 20.9 69.6 33 4.2 39.6
10:05 1022 30.18 851 25.13 21.5 70.8 32 4.3 39.8
10:10 1022 30.18 851 25.13 22 71.6 32 4.7 40.4
10:15 1022 30.18 851 25.13 22.6 72.7 29 3.8 38.8
10:20 1022 30.18 851 25.13 22.8 73 30 4.7 40.5
10:25 1022 30.18 851 25.13 22.7 72.8 31 5 41
10:30 1022 30.18 851 25.13 23 73.3 30 4.7 40.5
10:35 1022 30.18 851 25.13 23.1 73.6 30 4.6 40.3
10:40 1022 30.18 851 25.13 23.1 73.6 29 4.4 39.9
10:45 1022 30.18 851 25.13 23 73.5 29 4.5 40.1
10:50 1022 30.18 851 25.13 23.3 74 30 4.8 40.7
10:55 1022 30.18 851 25.13 23.5 74.2 28 3.9 39
11:00 1022 30.18 851 25.13 23.4 74.1 29 4.8 40.6
11:05 1021 30.15 851 25.13 23.3 73.9 28 4.2 39.5
11:10 1021 30.15 851 25.13 23.8 74.8 29 5.1 41.3
11:15 1021 30.15 851 25.13 24.1 75.3 28 4.6 40.3
11:20 1021 30.15 850 25.1 23.2 73.8 30 4.9 40.8
11:25 1021 30.15 850 25.1 23.6 74.5 28 4.1 39.4
11:30 1021 30.15 850 25.1 24.3 75.7 27 4.4 39.9
11:35 1021 30.15 850 25.1 24 75.1 28 4.5 40.1
11:40 1021 30.15 850 25.1 24.3 75.7 27 4.3 39.8
11:45 1021 30.15 850 25.1 24.2 75.6 27 4.3 39.7
11:50 1021 30.15 850 25.1 24.8 76.6 26 4 39.3
11:55 1021 30.15 850 25.1 24.2 75.5 27 4.1 39.3
12:00 1021 30.15 850 25.1 23.9 75 26 3.3 38
12:05 1021 30.15 850 25.1 24.8 76.7 26 4.2 39.6
12:10 1021 30.15 850 25.1 25 77 26 4.3 39.8
12:15 1020 30.12 850 25.1 24.7 76.4 27 4.9 40.8
12:20 1020 30.12 850 25.1 24.7 76.5 26 3.9 39
12:25 1020 30.12 850 25.1 24.9 76.9 26 4.1 39.5
12:30 1020 30.12 850 25.1 25.6 78 23 3.4 38.2
12:35 1020 30.12 849 25.07 25.5 78 26 4.7 40.4
12:40 1020 30.12 849 25.07 24.9 76.9 25 3.9 39
12:45 1020 30.12 849 25.07 25.5 77.9 24 3.9 39.1
12:50 1020 30.12 849 25.07 25.9 78.6 25 4.5 40.1
12:55 1020 30.12 849 25.07 26.1 79 24 4.3 39.8
13:00 1020 30.12 849 25.07 26.5 79.6 24 4.7 40.4
13:05 1020 30.12 849 25.07 26.6 79.8 25 5.1 41.1
13:10 1020 30.12 849 25.07 26.1 78.9 24 4.5 40
13:15 1020 30.12 849 25.07 26.4 79.6 24 4.7 40.4
13:20 1020 30.12 849 25.07 26.5 79.7 23 3.9 39.1
13:25 1020 30.12 849 25.07 26.6 79.8 23 4.3 39.7
13:30 1020 30.12 849 25.07 27.1 80.8 24 4.8 40.7
13:35 1020 30.12 849 25.07 26.8 80.2 23 4.1 39.5
13:40 1020 30.12 849 25.07 26.2 79.1 24 4.2 39.6
13:45 1019 30.09 849 25.07 25.8 78.5 25 4.4 39.9
13:50 1019 30.09 849 25.07 26.3 79.3 22 3.4 38.1
13:55 1019 30.09 849 25.07 27.5 81.4 22 4.2 39.5
14:00 1019 30.09 849 25.07 27.4 81.3 22 4.4 39.9
14:05 1019 30.09 848 25.04 26.7 80 24 4.7 40.5
14:10 1019 30.09 848 25.04 26.1 79 23 3.8 38.8
14:15 1019 30.09 848 25.04 26.6 79.9 21 3 37.3
14:20 1019 30.09 848 25.04 26.3 79.4 21 2.6 36.6
14:25 1019 30.09 848 25.04 26.3 79.4 21 2.3 36.1
14:30 1019 30.09 848 25.04 27.4 81.2 20 2.9 37.2
14:35 1019 30.09 848 25.04 28.1 82.5 20 3.1 37.6
14:40 1019 30.09 848 25.04 28.5 83.3 19 2.7 36.9
14:45 1019 30.09 848 25.04 28.6 83.4 20 3.7 38.6
14:50 1019 30.09 848 25.04 28 82.4 20 3.2 37.7
14:55 1019 30.09 848 25.04 28.2 82.7 20 3.3 37.9
15:00 1019 30.09 848 25.04 27.5 81.5 19 2 35.6
15:05 1019 30.09 848 25.04 28.4 83.2 19 2.6 36.7
15:10 1019 30.09 848 25.04 28.3 82.9 19 2.6 36.6
15:15 1019 30.09 848 25.04 28.8 83.8 16 1.2 34.1
15:20 1019 30.09 848 25.04 29 84.2 17 2 35.6
15:25 1019 30.09 848 25.04 29.3 84.8 17 2.5 36.5
15:30 1019 30.09 848 25.04 29 84.2 17 2.2 36
15:35 1019 30.09 848 25.04 28.1 82.5 18 1.8 35.2
15:40 1018 30.06 848 25.04 28.3 82.9 18 1.8 35.3
15:45 1018 30.06 848 25.04 28.6 83.5 15 0.1 32.2
15:50 1018 30.06 848 25.04 29.2 84.5 17 1.9 35.4
15:55 1018 30.06 847 25.01 29 84.2 17 1.5 34.8
16:00 1018 30.06 847 25.01 29 84.2 16 0.6 33.1
16:05 1018 30.06 847 25.01 29.1 84.4 16 1.4 34.6
16:10 1018 30.06 847 25.01 29.7 85.5 15 1 33.8
16:15 1018 30.06 847 25.01 29.3 84.7 17 2.2 36
16:20 1018 30.06 847 25.01 28.9 83.9 17 1.6 34.8
16:25 1018 30.06 847 25.01 29.6 85.3 15 0.7 33.2
16:30 1018 30.06 847 25.01 29.4 84.8 16 1.7 35
16:35 1018 30.06 847 25.01 29.2 84.5 17 2 35.7
16:40 1018 30.06 847 25.01 28.5 83.4 18 1.9 35.4
16:45 1018 30.06 847 25.01 28.7 83.7 17 1.4 34.6
16:50 1018 30.06 847 25.01 29.3 84.8 15 0.7 33.3
16:55 1018 30.06 847 25.01 30.1 86.2 16 1.6 34.8
17:00 1018 30.06 847 25.01 30.3 86.5 15 0.7 33.2
17:05 1018 30.06 847 25.01 29.9 85.9 16 2.1 35.7
17:10 1017 30.03 847 25.01 30 86 15 0.8 33.5
17:15 1017 30.03 847 25.01 30.4 86.6 15 0.7 33.3
17:20 1017 30.03 847 25.01 30.1 86.1 15 0.8 33.4
17:25 1017 30.03 846 24.98 29.7 85.5 15 0.8 33.4
17:30 1017 30.03 846 24.98 29.8 85.7 15 1 33.8
17:35 1017 30.03 846 24.98 29.5 85.1 16 1 33.8
17:40 1017 30.03 846 24.98 29.8 85.6 15 0.9 33.7
17:45 1017 30.03 846 24.98 30.2 86.3 15 1 33.8
17:50 1017 30.03 846 24.98 30.6 87.2 16 2.4 36.3
17:55 1017 30.03 846 24.98 30.6 87 15 1.3 34.4
18:00 1017 30.03 846 24.98 29.8 85.6 15 0.4 32.7
18:05 1017 30.03 846 24.98 29.7 85.5 14 0.2 32.3
18:10 1017 30.03 846 24.98 29.6 85.2 14 -0.2 31.7
18:15 1017 30.03 846 24.98 29.3 84.8 14 -1 30.2
18:20 1017 30.03 846 24.98 29.8 85.6 13 -0.9 30.3
18:25 1016 30 846 24.98 29.5 85.1 14 -0.9 30.5
18:30 1016 30 846 24.98 29.6 85.4 13 -1.2 29.8
18:35 1016 30 846 24.98 30.1 86.2 17 2.9 37.2
18:40 1016 30 846 24.98 30.4 86.8 13 -1 30.2
18:45 1016 30 846 24.98 29.6 85.2 14 -0.5 31.1
18:50 1016 30 845 24.95 29.5 85.1 13 -1.6 29.1
18:55 1016 30 845 24.95 29.7 85.5 13 -0.8 30.5
19:00 1016 30 845 24.95 29.3 84.7 14 -0.3 31.4
19:05 1016 30 845 24.95 29.3 84.8 14 -0.2 31.6
19:10 1016 30 845 24.95 29.2 84.6 13 -1.2 29.8
19:15 1016 30 845 24.95 28.9 84 14 -1 30.2
19:20 1016 30 845 24.95 28.7 83.7 14 -0.8 30.6
19:25 1016 30 845 24.95 29.2 84.6 14 -0.8 30.5
19:30 1016 30 845 24.95 29.1 84.4 14 -0.8 30.5
19:35 1016 30 845 24.95 28.8 83.9 14 -0.6 30.9
19:40 1016 30 845 24.95 28.4 83.1 14 -1.1 30
19:45 1016 30 845 24.95 28.2 82.7 15 -1 30.3
19:50 1016 30 845 24.95 28.1 82.5 15 -0.8 30.5
19:55 1016 30 845 24.95 28 82.3 15 -0.8 30.6
20:00 1016 30 845 24.95 27.9 82.1 14 -1.6 29.2
20:05 1016 30 845 24.95 27.9 82.3 14 -1.3 29.6
20:10 1016 30 845 24.95 27.9 82.3 22 4.6 40.3
20:15 1016 30 845 24.95 27.5 81.6 24 5.6 42
20:20 1016 30 845 24.95 27.3 81.2 22 3.8 38.8
20:25 1016 30 845 24.95 27.1 80.8 25 5.5 41.9
20:30 1016 30 845 24.95 26.9 80.3 23 4.3 39.7
20:35 1016 30 845 24.95 26.6 79.9 25 5.3 41.5
20:40 1016 30 845 24.95 26.3 79.4 26 5.7 42.2
20:45 1016 30 845 24.95 25.8 78.4 29 6.6 44
20:50 1016 30 845 24.95 25.3 77.5 33 8.3 46.9
20:55 1016 30 845 24.95 24.4 76 34 7.8 46
21:00 1016 30 845 24.95 23.8 74.9 33 7 44.6
21:05 1016 30 845 24.95 23.4 74.2 33 6.4 43.5
21:10 1016 30 845 24.95 23.2 73.7 33 6.1 43
21:15 1016 30 845 24.95 22.7 72.9 34 6.2 43.1
21:20 1016 30 845 24.95 22 71.7 37 7 44.7
21:25 1016 30 845 24.95 21.7 71.1 37 6.6 43.8
21:30 1016 30 845 24.95 22 71.6 34 5.5 41.9
21:35 1016 30 845 24.95 22 71.5 37 6.7 44
21:40 1016 30 845 24.95 21.8 71.3 40 7.8 46
21:45 1016 30 845 24.95 21.6 70.9 34 5.2 41.4
21:50 1016 30 846 24.98 21.3 70.4 35 5.4 41.7
21:55 1016 30 846 24.98 20.7 69.3 39 6.5 43.6
22:00 1016 30 846 24.98 20 68 38 5.6 42.1
22:05 1016 30 846 24.98 20 68 35 4.4 39.9
22:10 1017 30.03 846 24.98 20.3 68.5 34 3.9 39
22:15 1017 30.03 846 24.98 20.3 68.6 34 4.1 39.3
22:20 1017 30.03 846 24.98 20.4 68.7 37 5.4 41.7
22:25 1017 30.03 846 24.98 20.3 68.5 36 5 40.9
22:30 1017 30.03 846 24.98 19.8 67.7 33 3.4 38
22:35 1017 30.03 846 24.98 19.6 67.2 32 2.5 36.5
22:40 1017 30.03 846 24.98 19.5 67.2 34 3.6 38.5
22:45 1017 30.03 846 24.98 19.1 66.4 37 4.3 39.7
22:50 1017 30.03 846 24.98 18.7 65.6 36 3.6 38.5
22:55 1017 30.03 846 24.98 18.4 65.2 36 3.3 38
23:00 1017 30.03 846 24.98 18.5 65.2 35 2.9 37.2
23:05 1017 30.03 846 24.98 18.5 65.3 34 2.3 36.2
23:10 1017 30.03 846 24.98 19 66.2 31 1.7 35
23:15 1017 30.03 846 24.98 19.6 67.2 30 1.8 35.3
23:20 1017 30.03 846 24.98 19.7 67.5 33 3.2 37.8
23:25 1017 30.03 846 24.98 19.5 67.1 37 4.4 39.9
23:30 1017 30.03 846 24.98 18.9 66 42 5.8 42.4
23:35 1017 30.03 846 24.98 18.1 64.6 41 4.6 40.4
23:40 1017 30.03 846 24.98 17.8 64.1 38 3.5 38.3
23:45 1017 30.03 846 24.98 17.2 63 41 4.1 39.3
23:50 1017 30.03 846 24.98 16.6 61.9 42 3.8 38.8
23:55 1017 30.03 846 24.98 16.5 61.7 39 2.7 36.9
24:00 1017 30.03 846 24.98 16.8 62.2 37 1.9 35.5